createdAt,value
2023-05-04T00:01:38.705Z,99.90
2023-05-04T00:06:40.894Z,99.90
2023-05-04T00:11:43.011Z,99.90
2023-05-04T00:16:46.983Z,99.90
2023-05-04T00:21:49.256Z,99.90
2023-05-04T00:26:51.552Z,99.90
2023-05-04T00:31:55.382Z,99.90
2023-05-04T00:36:57.704Z,99.90
2023-05-04T00:41:59.903Z,99.90
2023-05-04T00:47:04.130Z,99.90
2023-05-04T00:52:06.875Z,99.90
2023-05-04T00:57:09.230Z,99.90
2023-05-04T01:02:12.455Z,99.90
2023-05-04T01:07:26.618Z,99.90
2023-05-04T01:12:35.570Z,99.90
2023-05-04T01:17:39.116Z,99.90
2023-05-04T01:22:42.837Z,99.90
2023-05-04T01:27:50.230Z,99.90
2023-05-04T01:32:54.081Z,99.90
2023-05-04T01:37:57.855Z,99.90
2023-05-04T01:42:59.896Z,99.90
2023-05-04T01:48:01.939Z,99.90
2023-05-04T01:53:05.723Z,99.90
2023-05-04T01:58:07.824Z,99.90
2023-05-04T02:03:10.810Z,99.90
2023-05-04T02:08:14.217Z,99.90
2023-05-04T02:13:16.814Z,99.90
2023-05-04T02:18:18.816Z,99.90
2023-05-04T02:23:22.260Z,99.90
2023-05-04T02:28:24.646Z,99.90
2023-05-04T02:33:26.723Z,99.90
2023-05-04T02:38:29.837Z,99.90
2023-05-04T02:43:32.020Z,99.90
2023-05-04T02:48:34.525Z,99.90
2023-05-04T02:53:38.060Z,99.90
2023-05-04T02:58:40.244Z,99.90
2023-05-04T03:03:42.590Z,99.90
2023-05-04T03:08:46.134Z,99.90
2023-05-04T03:13:48.044Z,99.90
2023-05-04T03:24:11.646Z,99.90
2023-05-04T03:29:13.971Z,99.90
2023-05-04T03:34:15.991Z,99.90
2023-05-04T03:39:19.794Z,99.90
2023-05-04T03:44:21.838Z,99.90
2023-05-04T03:49:23.838Z,99.90
2023-05-04T03:54:27.575Z,99.90
2023-05-04T03:59:29.657Z,99.90
2023-05-04T04:04:31.608Z,99.90
2023-05-04T04:09:35.140Z,99.90
2023-05-04T04:14:36.834Z,99.90
2023-05-04T04:19:38.923Z,99.90
2023-05-04T04:24:42.786Z,99.90
2023-05-04T04:29:44.691Z,99.90
2023-05-04T04:34:47.080Z,99.90
2023-05-04T04:39:50.910Z,99.90
2023-05-04T04:44:53.689Z,99.90
2023-05-04T04:49:55.938Z,99.90
2023-05-04T04:55:00.071Z,99.90
2023-05-04T05:00:02.391Z,99.90
2023-05-04T05:05:05.265Z,99.90
2023-05-04T05:10:10.287Z,99.90
2023-05-04T05:15:12.860Z,99.90
2023-05-04T05:20:15.520Z,99.90
2023-05-04T05:25:19.166Z,99.90
2023-05-04T05:30:21.348Z,99.90
2023-05-04T05:35:23.845Z,99.90
2023-05-04T05:40:27.325Z,99.90
2023-05-04T05:45:29.716Z,99.90
2023-05-04T05:50:31.983Z,99.90
2023-05-04T05:55:35.594Z,99.90
2023-05-04T06:00:37.706Z,99.90
2023-05-04T06:05:39.511Z,99.90
2023-05-04T06:10:43.409Z,99.90
2023-05-04T06:15:52.835Z,99.90
2023-05-04T06:21:00.346Z,99.90
2023-05-04T06:26:05.991Z,99.90
2023-05-04T06:31:08.684Z,99.90
2023-05-04T06:36:10.810Z,99.90
2023-05-04T06:41:15.017Z,99.90
2023-05-04T06:46:17.431Z,99.90
2023-05-04T06:51:19.546Z,99.90
2023-05-04T06:56:23.800Z,99.90
2023-05-04T07:01:25.831Z,99.90
2023-05-04T07:06:28.757Z,99.90
2023-05-04T07:11:32.312Z,99.90
2023-05-04T07:16:34.211Z,99.90
2023-05-04T07:21:36.689Z,99.90
2023-05-04T07:26:40.136Z,99.90
2023-05-04T07:31:42.395Z,99.90
2023-05-04T07:36:44.751Z,99.90
2023-05-04T07:41:49.614Z,99.90
2023-05-04T07:46:51.748Z,99.90
2023-05-04T07:51:53.966Z,99.90
2023-05-04T07:56:57.226Z,99.90
2023-05-04T08:01:59.920Z,99.90
2023-05-04T08:07:02.248Z,99.90
2023-05-04T08:12:06.035Z,99.90
2023-05-04T08:17:08.428Z,99.90
2023-05-04T08:22:10.812Z,99.90
2023-05-04T08:27:15.946Z,99.90
2023-05-04T08:32:18.456Z,99.90
2023-05-04T08:37:21.460Z,99.90
2023-05-04T08:42:32.504Z,99.90
2023-05-04T08:47:34.740Z,99.90
2023-05-04T08:52:38.157Z,99.90
2023-05-04T08:57:44.613Z,99.90
2023-05-04T09:02:48.323Z,99.90
2023-05-04T09:07:52.671Z,99.90
2023-05-04T09:12:56.975Z,99.90
2023-05-04T09:18:00.282Z,99.90
2023-05-04T09:23:03.990Z,99.90
2023-05-04T09:28:07.166Z,99.90
2023-05-04T09:33:10.801Z,99.90
2023-05-04T09:38:12.585Z,99.90
2023-05-04T09:43:16.003Z,99.90
2023-05-04T09:48:20.609Z,99.90
2023-05-04T09:53:25.194Z,99.90
2023-05-04T09:58:29.203Z,99.90
2023-05-04T10:03:31.856Z,99.90
2023-05-04T10:08:34.652Z,99.90
2023-05-04T10:13:38.086Z,99.90
2023-05-04T10:18:57.706Z,99.90
2023-05-04T10:24:29.526Z,99.90
2023-05-04T10:29:34.469Z,99.90
2023-05-04T10:34:37.149Z,99.90
2023-05-04T10:39:40.159Z,99.90
2023-05-04T10:44:53.420Z,99.90
2023-05-04T10:50:04.198Z,99.90
2023-05-04T10:55:09.260Z,99.90
2023-05-04T11:00:14.575Z,99.90
2023-05-04T11:05:20.465Z,99.90
2023-05-04T11:10:24.584Z,99.90
2023-05-04T11:15:28.365Z,99.90
2023-05-04T11:20:30.456Z,99.90
2023-05-04T11:25:33.575Z,99.90
2023-05-04T11:30:37.919Z,99.90
2023-05-04T11:35:40.535Z,99.90
2023-05-04T11:40:49.934Z,99.90
2023-05-04T11:45:56.081Z,99.90
2023-05-04T11:50:58.281Z,99.90
2023-05-04T11:56:03.829Z,99.90
2023-05-04T12:01:07.695Z,99.10
2023-05-04T12:06:10.768Z,99.90
2023-05-04T12:11:16.434Z,99.90
2023-05-04T12:16:22.006Z,98.20
2023-05-04T12:21:24.375Z,99.90
2023-05-04T12:26:27.156Z,97.70
2023-05-04T12:31:30.877Z,97.50
2023-05-04T12:36:33.343Z,94.60
2023-05-04T12:41:35.794Z,98.10
2023-05-04T12:46:39.470Z,96.80
2023-05-04T12:51:41.569Z,96.30
2023-05-04T12:56:43.512Z,95.80
2023-05-04T13:01:47.267Z,94.90
2023-05-04T13:06:49.230Z,92.50
2023-05-04T13:11:51.334Z,91.80
2023-05-04T13:16:55.580Z,92.10
2023-05-04T13:21:57.830Z,91.30
2023-05-04T13:27:02.445Z,90.50
2023-05-04T13:32:06.885Z,82.90
2023-05-04T13:37:08.816Z,87.80
2023-05-04T13:42:10.669Z,87.00
2023-05-04T13:47:15.219Z,79.20
2023-05-04T13:52:17.383Z,78.70
2023-05-04T13:57:19.468Z,79.00
2023-05-04T14:02:25.126Z,83.50
2023-05-04T14:07:30.731Z,80.20
2023-05-04T14:12:33.075Z,85.20
2023-05-04T14:17:36.786Z,83.30
2023-05-04T14:22:41.373Z,81.50
2023-05-04T14:27:44.226Z,80.20
2023-05-04T14:32:47.508Z,83.20
2023-05-04T14:37:49.757Z,78.10
2023-05-04T14:42:52.139Z,80.00
2023-05-04T14:47:55.925Z,80.10
2023-05-04T14:52:58.351Z,77.50
2023-05-04T14:58:00.648Z,82.40
2023-05-04T15:03:04.284Z,83.40
2023-05-04T15:08:07.027Z,86.90
2023-05-04T15:13:09.201Z,85.20
2023-05-04T15:18:12.860Z,83.00
2023-05-04T15:23:14.912Z,87.90
2023-05-04T15:28:16.939Z,84.70
2023-05-04T15:33:20.493Z,85.10
2023-05-04T15:38:22.900Z,86.50
2023-05-04T15:43:24.927Z,87.50
2023-05-04T15:48:28.888Z,87.80
2023-05-04T15:53:31.034Z,87.70
2023-05-04T15:58:33.191Z,87.80
2023-05-04T16:03:36.615Z,88.20
2023-05-04T16:08:38.790Z,90.50
2023-05-04T16:13:41.126Z,91.40
2023-05-04T16:18:45.039Z,91.60
2023-05-04T16:23:47.101Z,92.90
2023-05-04T16:28:49.392Z,93.10
2023-05-04T16:33:53.731Z,93.40
2023-05-04T16:38:55.805Z,93.50
2023-05-04T16:43:58.319Z,94.00
2023-05-04T16:49:02.231Z,94.20
2023-05-04T16:54:04.374Z,95.00
2023-05-04T16:59:06.926Z,94.40
2023-05-04T17:04:11.355Z,94.60
2023-05-04T17:09:13.377Z,95.00
2023-05-04T17:14:15.746Z,95.70
2023-05-04T17:19:19.749Z,95.00
2023-05-04T17:24:22.031Z,96.30
2023-05-04T17:29:24.516Z,97.80
2023-05-04T17:34:28.402Z,98.40
2023-05-04T17:39:31.878Z,99.00
2023-05-04T17:44:33.868Z,99.10
2023-05-04T17:49:37.680Z,99.90
2023-05-04T17:54:39.937Z,99.90
2023-05-04T17:59:42.076Z,99.90
2023-05-04T18:04:45.908Z,99.90
2023-05-04T18:09:47.882Z,99.90
2023-05-04T18:14:50.220Z,99.90
2023-05-04T18:19:53.776Z,99.90
2023-05-04T18:24:55.712Z,99.90
2023-05-04T18:29:58.053Z,99.90
2023-05-04T18:35:01.805Z,99.90
2023-05-04T18:40:05.247Z,99.90
2023-05-04T18:45:10.479Z,99.90
2023-05-04T18:50:52.619Z,99.90
2023-05-04T19:02:17.012Z,99.90
2023-05-04T19:07:21.555Z,99.90
2023-05-04T19:12:24.073Z,99.90
2023-05-04T19:17:26.337Z,99.90
2023-05-04T19:22:31.285Z,99.90
2023-05-04T19:27:33.540Z,99.90
2023-05-04T19:32:37.483Z,99.90
2023-05-04T19:37:41.344Z,99.90
2023-05-04T19:42:46.345Z,99.90
2023-05-04T19:47:48.648Z,99.90
2023-05-04T19:52:53.130Z,99.90
2023-05-04T19:57:55.518Z,99.90
2023-05-04T20:02:57.970Z,99.90
2023-05-04T20:08:04.206Z,99.90
2023-05-04T20:13:07.039Z,99.90
2023-05-04T20:18:09.526Z,99.90
2023-05-04T20:23:13.549Z,99.90
2023-05-04T20:28:16.715Z,99.90
2023-05-04T20:33:19.314Z,99.90
2023-05-04T20:38:22.877Z,99.90
2023-05-04T20:43:25.108Z,99.90
2023-05-04T20:48:27.673Z,99.90
2023-05-04T20:53:36.484Z,99.90
2023-05-04T20:58:38.383Z,99.90
2023-05-04T21:03:40.972Z,99.90
2023-05-04T21:08:44.797Z,99.90
2023-05-04T21:13:46.990Z,99.90
2023-05-04T21:18:49.487Z,99.90
2023-05-04T21:23:53.091Z,99.90
2023-05-04T21:28:55.496Z,99.90
2023-05-04T21:33:57.913Z,99.90
2023-05-04T21:39:01.439Z,99.90
2023-05-04T21:44:03.386Z,99.90
2023-05-04T21:49:05.202Z,99.90
2023-05-04T21:54:09.223Z,99.90
2023-05-04T21:59:11.225Z,99.90
2023-05-04T22:04:13.486Z,99.90
2023-05-04T22:09:19.045Z,99.90
2023-05-04T22:14:21.572Z,99.90
2023-05-04T22:19:25.123Z,99.90
2023-05-04T22:24:29.090Z,99.90
2023-05-04T22:29:31.253Z,99.90
2023-05-04T22:34:33.253Z,99.90
2023-05-04T22:39:36.579Z,99.90
2023-05-04T22:44:38.690Z,99.90
2023-05-04T22:49:41.514Z,99.90
2023-05-04T22:54:45.847Z,99.90
2023-05-04T22:59:48.431Z,99.90
2023-05-04T23:04:50.423Z,99.90
2023-05-04T23:09:53.625Z,99.90
2023-05-04T23:14:55.992Z,99.90
2023-05-04T23:20:07.576Z,99.90
2023-05-04T23:25:11.645Z,99.90
2023-05-04T23:30:14.315Z,99.90
2023-05-04T23:35:16.660Z,99.90
2023-05-04T23:40:20.319Z,99.90
2023-05-04T23:45:22.707Z,99.90
2023-05-04T23:50:25.020Z,99.90
2023-05-04T23:55:28.441Z,99.90
